Time;durP1;ratioP1;P1;durP2;ratioP2;P2;SDS_P1;SDS_P2;PMS_P1;PMS_P2;Temp;Humidity;BMP_temperature;BMP_pressure;BME280_temperature;BME280_humidity;BME280_pressure;Samples;Min_cycle;Max_cycle;Signal;HPM_P1;HPM_P2
2023/06/15 00:00:31;;;;;;;2.00;1.25;;;;;;;;;;7396901;19;20208;-89
2023/06/15 00:02:58;;;;;;;0.50;0.50;;;;;;;;;;7398121;19;20152;-89
2023/06/15 00:05:25;;;;;;;0.43;0.43;;;;;;;;;;7400641;19;20485;-90
2023/06/15 00:07:52;;;;;;;0.40;0.40;;;;;;;;;;7400608;19;20147;-89
2023/06/15 00:10:21;;;;;;;0.52;0.52;;;;;;;;;;7395535;19;20137;-91
2023/06/15 00:12:47;;;;;;;0.60;0.60;;;;;;;;;;7397882;19;20160;-90
2023/06/15 00:15:15;;;;;;;0.65;0.65;;;;;;;;;;7391835;19;20137;-89
2023/06/15 00:17:43;;;;;;;0.60;0.60;;;;;;;;;;7391347;19;20147;-90
2023/06/15 00:20:13;;;;;;;0.43;0.43;;;;;;;;;;7386437;19;20141;-90
2023/06/15 00:22:41;;;;;;;0.60;0.60;;;;;;;;;;7392875;19;20164;-89
2023/06/15 00:25:16;;;;;;;1.38;0.65;;;;;;;;;;7397875;19;20153;-90
2023/06/15 00:27:43;;;;;;;0.50;0.50;;;;;;;;;;7396932;19;20605;-89
2023/06/15 00:30:10;;;;;;;0.65;0.65;;;;;;;;;;7398044;19;20662;-89
2023/06/15 00:32:37;;;;;;;0.47;0.47;;;;;;;;;;7399450;19;20153;-89
2023/06/15 00:35:04;;;;;;;0.47;0.47;;;;;;;;;;7400579;19;20144;-89
2023/06/15 00:37:31;;;;;;;1.70;0.50;;;;;;;;;;7395747;19;20489;-89
2023/06/15 00:39:58;;;;;;;0.50;0.50;;;;;;;;;;7394076;19;20470;-89
2023/06/15 00:42:30;;;;;;;0.38;0.38;;;;;;;;;;7396254;19;20772;-90
2023/06/15 00:44:56;;;;;;;0.88;0.88;;;;;;;;;;7393633;19;20129;-90
2023/06/15 00:47:23;;;;;;;0.95;0.95;;;;;;;;;;7397610;19;20658;-89
2023/06/15 00:49:50;;;;;;;0.57;0.57;;;;;;;;;;7400934;19;20152;-89
2023/06/15 00:52:17;;;;;;;0.40;0.40;;;;;;;;;;7402842;19;20155;-88
2023/06/15 00:54:44;;;;;;;1.05;0.75;;;;;;;;;;7403072;19;20136;-89
2023/06/15 00:57:12;;;;;;;0.63;0.63;;;;;;;;;;7397919;19;20129;-89
2023/06/15 00:59:39;;;;;;;0.80;0.80;;;;;;;;;;7398399;19;20133;-89
2023/06/15 01:02:12;;;;;;;0.40;0.40;;;;;;;;;;7398764;19;20153;-88
2023/06/15 01:04:39;;;;;;;0.47;0.47;;;;;;;;;;7393322;19;20145;-88
2023/06/15 01:07:10;;;;;;;0.53;0.53;;;;;;;;;;7404354;19;20149;-88
2023/06/15 01:09:40;;;;;;;0.93;0.93;;;;;;;;;;7401814;19;20559;-90
2023/06/15 01:12:11;;;;;;;0.60;0.60;;;;;;;;;;7399000;19;20610;-89
2023/06/15 01:14:39;;;;;;;0.93;0.93;;;;;;;;;;7392833;19;20145;-90
2023/06/15 01:17:09;;;;;;;0.80;0.50;;;;;;;;;;7391810;19;20137;-90
2023/06/15 01:19:39;;;;;;;0.50;0.50;;;;;;;;;;7386657;19;20128;-90
2023/06/15 01:22:24;;;;;;;0.70;0.70;;;;;;;;;;7385954;19;20156;-90
2023/06/15 01:25:02;;;;;;;0.40;0.40;;;;;;;;;;7389197;19;20148;-90
2023/06/15 01:27:29;;;;;;;0.93;0.73;;;;;;;;;;7389331;19;20129;-90
2023/06/15 01:29:57;;;;;;;0.80;0.80;;;;;;;;;;7387028;19;20153;-90
2023/06/15 01:32:24;;;;;;;3.90;0.70;;;;;;;;;;7389793;19;20176;-90
2023/06/15 01:34:51;;;;;;;1.27;1.10;;;;;;;;;;7390028;19;20597;-90
2023/06/15 01:37:18;;;;;;;0.50;0.50;;;;;;;;;;7388206;19;20763;-90
2023/06/15 01:39:45;;;;;;;0.60;0.60;;;;;;;;;;7387196;19;20125;-90
2023/06/15 01:42:12;;;;;;;0.40;0.40;;;;;;;;;;7393669;19;20179;-90
2023/06/15 01:44:40;;;;;;;0.63;0.63;;;;;;;;;;7389357;19;20145;-90
2023/06/15 01:47:07;;;;;;;0.60;0.57;;;;;;;;;;7397436;19;20136;-91
2023/06/15 01:49:34;;;;;;;0.60;0.60;;;;;;;;;;7394784;19;20137;-90
2023/06/15 01:52:00;;;;;;;0.57;0.57;;;;;;;;;;7395926;19;20504;-89
2023/06/15 01:54:27;;;;;;;0.70;0.70;;;;;;;;;;7396614;19;20140;-90
2023/06/15 01:56:54;;;;;;;1.07;0.90;;;;;;;;;;7394098;19;20136;-90
2023/06/15 01:59:22;;;;;;;1.70;0.67;;;;;;;;;;7397278;19;20144;-89
2023/06/15 02:01:49;;;;;;;0.40;0.40;;;;;;;;;;7396023;19;20161;-90
2023/06/15 02:04:16;;;;;;;0.80;0.80;;;;;;;;;;7397886;19;20169;-89
2023/06/15 02:06:43;;;;;;;0.57;0.57;;;;;;;;;;7396093;19;20144;-90
2023/06/15 02:09:09;;;;;;;0.60;0.60;;;;;;;;;;7395685;19;20133;-90
2023/06/15 02:11:36;;;;;;;0.67;0.67;;;;;;;;;;7394038;19;20137;-90
2023/06/15 02:14:05;;;;;;;0.40;0.40;;;;;;;;;;7397830;19;20140;-90
2023/06/15 02:16:32;;;;;;;0.70;0.70;;;;;;;;;;7395421;19;20162;-89
2023/06/15 02:19:00;;;;;;;0.87;0.60;;;;;;;;;;7398260;19;20212;-89
2023/06/15 02:21:26;;;;;;;0.57;0.57;;;;;;;;;;7395916;19;20149;-89
2023/06/15 02:23:53;;;;;;;0.50;0.50;;;;;;;;;;7394763;19;20160;-90
2023/06/15 02:26:20;;;;;;;0.73;0.73;;;;;;;;;;7396061;19;20146;-90
2023/06/15 02:28:46;;;;;;;0.53;0.53;;;;;;;;;;7394603;19;20593;-90
2023/06/15 02:31:13;;;;;;;1.47;0.97;;;;;;;;;;7393279;19;20143;-91
2023/06/15 02:33:40;;;;;;;0.97;0.90;;;;;;;;;;7392260;19;20502;-90
2023/06/15 02:36:07;;;;;;;1.17;1.07;;;;;;;;;;7394802;19;20485;-89
2023/06/15 02:38:33;;;;;;;0.83;0.70;;;;;;;;;;7392414;19;20152;-91
2023/06/15 02:41:00;;;;;;;0.87;0.87;;;;;;;;;;7391071;19;20601;-91
2023/06/15 02:43:26;;;;;;;0.90;0.90;;;;;;;;;;7392860;19;20156;-91
2023/06/15 02:45:53;;;;;;;3.00;0.70;;;;;;;;;;7394601;19;20129;-91
2023/06/15 02:48:20;;;;;;;0.70;0.70;;;;;;;;;;7394241;19;20213;-90
2023/06/15 02:50:46;;;;;;;0.33;0.33;;;;;;;;;;7391600;19;20506;-90
2023/06/15 02:53:14;;;;;;;3.93;0.90;;;;;;;;;;7392755;19;20164;-90
2023/06/15 02:55:42;;;;;;;1.50;1.03;;;;;;;;;;7392733;19;20204;-90
2023/06/15 02:58:08;;;;;;;0.50;0.50;;;;;;;;;;7394360;19;20601;-91
2023/06/15 03:00:36;;;;;;;0.63;0.63;;;;;;;;;;7394174;19;20245;-90
2023/06/15 03:03:03;;;;;;;0.50;0.50;;;;;;;;;;7392071;19;20512;-90
2023/06/15 03:05:30;;;;;;;0.70;0.70;;;;;;;;;;7394710;19;20594;-92
2023/06/15 03:07:57;;;;;;;0.40;0.40;;;;;;;;;;7393725;19;20492;-90
2023/06/15 03:10:24;;;;;;;0.70;0.60;;;;;;;;;;7394542;19;20129;-90
2023/06/15 03:12:51;;;;;;;1.10;1.00;;;;;;;;;;7398503;19;20164;-91
2023/06/15 03:15:18;;;;;;;0.60;0.60;;;;;;;;;;7401404;19;20501;-91
2023/06/15 03:17:45;;;;;;;0.60;0.60;;;;;;;;;;7400371;19;20153;-90
2023/06/15 03:20:12;;;;;;;1.17;1.10;;;;;;;;;;7401938;19;20137;-90
2023/06/15 03:22:39;;;;;;;0.30;0.30;;;;;;;;;;7400448;19;20153;-90
2023/06/15 03:25:11;;;;;;;0.60;0.60;;;;;;;;;;7408549;19;20158;-90
2023/06/15 03:27:40;;;;;;;0.30;0.30;;;;;;;;;;7403135;19;20657;-90
2023/06/15 03:30:10;;;;;;;0.77;0.77;;;;;;;;;;7398815;19;20138;-91
2023/06/15 03:32:37;;;;;;;0.47;0.47;;;;;;;;;;7400299;19;20184;-90
2023/06/15 03:35:06;;;;;;;1.03;0.73;;;;;;;;;;7400319;19;20149;-90
2023/06/15 03:37:33;;;;;;;0.40;0.40;;;;;;;;;;7398955;19;20148;-90
2023/06/15 03:40:00;;;;;;;0.57;0.57;;;;;;;;;;7399815;19;20153;-90
2023/06/15 03:42:26;;;;;;;0.40;0.40;;;;;;;;;;7399921;19;20233;-90
2023/06/15 03:44:53;;;;;;;0.63;0.63;;;;;;;;;;7399370;19;20590;-89
2023/06/15 03:47:20;;;;;;;0.57;0.57;;;;;;;;;;7400052;19;20141;-90
2023/06/15 03:49:46;;;;;;;1.53;0.80;;;;;;;;;;7400383;19;20137;-90
2023/06/15 03:52:13;;;;;;;0.33;0.33;;;;;;;;;;7397770;19;20173;-90
2023/06/15 03:54:40;;;;;;;0.43;0.43;;;;;;;;;;7394307;19;20164;-90
2023/06/15 03:57:06;;;;;;;0.40;0.40;;;;;;;;;;7396384;19;20148;-90
2023/06/15 03:59:33;;;;;;;0.73;0.73;;;;;;;;;;7390814;19;20180;-91
2023/06/15 04:02:00;;;;;;;0.60;0.60;;;;;;;;;;7397556;19;20149;-90
2023/06/15 04:04:27;;;;;;;0.70;0.70;;;;;;;;;;7399393;19;20622;-90
2023/06/15 04:06:56;;;;;;;0.50;0.50;;;;;;;;;;7399373;19;20133;-89
2023/06/15 04:09:22;;;;;;;0.77;0.77;;;;;;;;;;7398643;19;20192;-90
2023/06/15 04:11:49;;;;;;;0.50;0.50;;;;;;;;;;7396094;19;20140;-90
2023/06/15 04:14:18;;;;;;;1.47;0.57;;;;;;;;;;7399393;19;20161;-90
2023/06/15 04:16:45;;;;;;;0.60;0.60;;;;;;;;;;7397592;19;20154;-90
2023/06/15 04:19:13;;;;;;;0.53;0.53;;;;;;;;;;7395040;19;20139;-90
2023/06/15 04:21:39;;;;;;;2.10;0.80;;;;;;;;;;7395844;19;20133;-90
2023/06/15 04:24:06;;;;;;;1.20;0.73;;;;;;;;;;7394129;19;20156;-90
2023/06/15 04:26:33;;;;;;;0.40;0.40;;;;;;;;;;7394474;19;20136;-89
2023/06/15 04:29:00;;;;;;;0.77;0.77;;;;;;;;;;7393558;19;20156;-90
2023/06/15 04:31:30;;;;;;;0.50;0.50;;;;;;;;;;7392437;19;20147;-90
2023/06/15 04:33:59;;;;;;;1.37;0.87;;;;;;;;;;7394050;19;20137;-90
2023/06/15 04:36:26;;;;;;;1.13;1.03;;;;;;;;;;7393213;19;20139;-91
2023/06/15 04:38:52;;;;;;;0.40;0.40;;;;;;;;;;7394299;19;20140;-90
2023/06/15 04:41:22;;;;;;;0.73;0.73;;;;;;;;;;7392796;19;20601;-90
2023/06/15 04:43:50;;;;;;;0.60;0.60;;;;;;;;;;7391911;19;20177;-91
2023/06/15 04:46:17;;;;;;;0.60;0.60;;;;;;;;;;7393971;19;20487;-90
2023/06/15 04:48:44;;;;;;;0.70;0.70;;;;;;;;;;7396463;19;20590;-89
2023/06/15 04:51:11;;;;;;;0.60;0.60;;;;;;;;;;7391714;19;20606;-91
2023/06/15 04:53:42;;;;;;;0.80;0.80;;;;;;;;;;7393234;19;20630;-88
2023/06/15 04:56:10;;;;;;;0.83;0.83;;;;;;;;;;7397488;19;20565;-88
2023/06/15 04:58:37;;;;;;;0.70;0.70;;;;;;;;;;7397072;19;20161;-89
2023/06/15 05:01:05;;;;;;;0.73;0.73;;;;;;;;;;7398891;19;20143;-88
2023/06/15 05:03:33;;;;;;;1.97;0.90;;;;;;;;;;7394378;19;20216;-88
2023/06/15 05:05:59;;;;;;;1.07;0.70;;;;;;;;;;7401017;19;20155;-89
2023/06/15 05:08:26;;;;;;;1.60;1.03;;;;;;;;;;7399411;19;20736;-88
2023/06/15 05:10:53;;;;;;;0.60;0.60;;;;;;;;;;7401234;19;20129;-88
2023/06/15 05:13:19;;;;;;;0.60;0.60;;;;;;;;;;7397072;19;20155;-88
2023/06/15 05:15:46;;;;;;;0.40;0.40;;;;;;;;;;7401148;19;20204;-88
2023/06/15 05:18:13;;;;;;;1.10;1.07;;;;;;;;;;7401206;19;20526;-87
2023/06/15 05:20:40;;;;;;;0.60;0.60;;;;;;;;;;7397133;19;20205;-87
2023/06/15 05:23:07;;;;;;;0.47;0.47;;;;;;;;;;7401614;19;20595;-88
2023/06/15 05:25:34;;;;;;;0.90;0.83;;;;;;;;;;7398209;19;20140;-88
2023/06/15 05:28:01;;;;;;;0.40;0.40;;;;;;;;;;7396019;19;20141;-90
2023/06/15 05:30:28;;;;;;;0.67;0.63;;;;;;;;;;7393174;19;20137;-89
2023/06/15 05:32:55;;;;;;;2.13;1.17;;;;;;;;;;7390039;19;20178;-89
2023/06/15 05:35:22;;;;;;;0.67;0.67;;;;;;;;;;7393162;19;20125;-89
2023/06/15 05:37:49;;;;;;;0.47;0.47;;;;;;;;;;7392929;19;20196;-89
2023/06/15 05:40:15;;;;;;;0.37;0.37;;;;;;;;;;7397944;19;20640;-89
2023/06/15 05:42:42;;;;;;;0.77;0.77;;;;;;;;;;7395262;19;20155;-89
2023/06/15 05:45:09;;;;;;;1.15;1.15;;;;;;;;;;7391503;19;20145;-90
2023/06/15 05:47:36;;;;;;;0.47;0.47;;;;;;;;;;7392701;19;20513;-89
2023/06/15 05:50:03;;;;;;;0.90;0.90;;;;;;;;;;7396157;19;20169;-89
2023/06/15 05:52:30;;;;;;;0.90;0.73;;;;;;;;;;7396287;19;20149;-90
2023/06/15 05:54:56;;;;;;;1.20;0.60;;;;;;;;;;7394180;19;20163;-90
2023/06/15 05:57:23;;;;;;;0.63;0.63;;;;;;;;;;7397871;19;20233;-90
2023/06/15 05:59:50;;;;;;;0.90;0.90;;;;;;;;;;7398957;19;20144;-89
2023/06/15 06:02:16;;;;;;;0.70;0.70;;;;;;;;;;7397787;19;20263;-89
2023/06/15 06:04:43;;;;;;;0.77;0.77;;;;;;;;;;7398306;19;20133;-89
2023/06/15 06:07:10;;;;;;;1.60;1.50;;;;;;;;;;7399589;19;20132;-89
2023/06/15 06:09:37;;;;;;;1.13;1.13;;;;;;;;;;7396807;19;20502;-89
2023/06/15 06:12:05;;;;;;;4.22;0.70;;;;;;;;;;7396472;19;20216;-89
2023/06/15 06:14:31;;;;;;;0.93;0.93;;;;;;;;;;7409771;19;20156;-90
2023/06/15 06:16:58;;;;;;;1.05;0.93;;;;;;;;;;7412835;19;20157;-89
2023/06/15 06:19:25;;;;;;;0.77;0.77;;;;;;;;;;7398068;19;20541;-90
2023/06/15 06:21:52;;;;;;;0.57;0.57;;;;;;;;;;7397343;19;20653;-89
2023/06/15 06:24:18;;;;;;;0.75;0.75;;;;;;;;;;7398283;19;20143;-89
2023/06/15 06:26:49;;;;;;;0.55;0.55;;;;;;;;;;7396802;19;20140;-89
2023/06/15 06:29:16;;;;;;;1.00;0.77;;;;;;;;;;7398461;19;20140;-90
2023/06/15 06:31:42;;;;;;;0.60;0.60;;;;;;;;;;7395323;19;20144;-90
2023/06/15 06:34:10;;;;;;;0.80;0.80;;;;;;;;;;7396642;19;20508;-90
2023/06/15 06:36:37;;;;;;;0.80;0.80;;;;;;;;;;7398914;19;20224;-90
2023/06/15 06:39:04;;;;;;;0.65;0.65;;;;;;;;;;7395534;19;20143;-90
2023/06/15 06:41:31;;;;;;;0.75;0.75;;;;;;;;;;7395372;19;20140;-89
2023/06/15 06:43:58;;;;;;;0.85;0.85;;;;;;;;;;7394405;19;20161;-90
2023/06/15 06:46:24;;;;;;;0.73;0.73;;;;;;;;;;7402256;19;20143;-89
2023/06/15 06:48:51;;;;;;;0.98;0.98;;;;;;;;;;7402136;19;20140;-89
2023/06/15 06:51:18;;;;;;;1.00;1.00;;;;;;;;;;7400900;19;20140;-90
2023/06/15 06:53:45;;;;;;;2.25;1.20;;;;;;;;;;7401162;19;20181;-90
2023/06/15 06:56:11;;;;;;;1.77;1.00;;;;;;;;;;7403632;19;20121;-88
2023/06/15 06:58:38;;;;;;;0.43;0.43;;;;;;;;;;7401828;19;20153;-89
2023/06/15 07:01:05;;;;;;;0.60;0.60;;;;;;;;;;7401357;19;20136;-90
2023/06/15 07:03:31;;;;;;;0.75;0.75;;;;;;;;;;7398512;19;20588;-89
2023/06/15 07:05:59;;;;;;;0.60;0.60;;;;;;;;;;7402794;19;20137;-89
2023/06/15 07:08:26;;;;;;;2.92;1.20;;;;;;;;;;7402120;19;20154;-90
2023/06/15 07:10:52;;;;;;;1.08;1.05;;;;;;;;;;7402854;19;20137;-89
2023/06/15 07:13:19;;;;;;;0.80;0.80;;;;;;;;;;7399750;19;20674;-89
2023/06/15 07:15:46;;;;;;;0.85;0.80;;;;;;;;;;7403635;19;20170;-90
2023/06/15 07:18:14;;;;;;;0.70;0.70;;;;;;;;;;7403385;19;20140;-88
2023/06/15 07:20:41;;;;;;;0.85;0.85;;;;;;;;;;7407008;19;20153;-88
2023/06/15 07:23:08;;;;;;;0.80;0.80;;;;;;;;;;7401759;19;20156;-89
2023/06/15 07:25:35;;;;;;;1.20;1.15;;;;;;;;;;7402870;19;20505;-88
2023/06/15 07:28:02;;;;;;;0.82;0.82;;;;;;;;;;7400273;19;20141;-89
2023/06/15 07:30:29;;;;;;;1.83;1.25;;;;;;;;;;7400620;19;20174;-90
2023/06/15 07:32:56;;;;;;;0.88;0.88;;;;;;;;;;7401138;19;20161;-89
2023/06/15 07:35:23;;;;;;;0.40;0.40;;;;;;;;;;7401130;19;20622;-88
2023/06/15 07:37:50;;;;;;;0.98;0.98;;;;;;;;;;7405370;19;20136;-87
2023/06/15 07:40:16;;;;;;;0.50;0.50;;;;;;;;;;7409249;19;20232;-89
2023/06/15 07:42:44;;;;;;;0.40;0.40;;;;;;;;;;7406856;19;20169;-88
2023/06/15 07:45:11;;;;;;;1.45;1.35;;;;;;;;;;7406394;19;20141;-89
2023/06/15 07:47:37;;;;;;;0.82;0.82;;;;;;;;;;7407770;19;20153;-88
2023/06/15 07:50:04;;;;;;;1.05;0.90;;;;;;;;;;7410497;19;20141;-88
2023/06/15 07:52:31;;;;;;;0.82;0.82;;;;;;;;;;7408477;19;20646;-89
2023/06/15 07:54:58;;;;;;;1.20;1.10;;;;;;;;;;7409814;19;20165;-88
2023/06/15 07:57:26;;;;;;;0.68;0.68;;;;;;;;;;7404060;19;20140;-89
2023/06/15 07:59:52;;;;;;;0.47;0.47;;;;;;;;;;7405165;19;20129;-88
2023/06/15 08:02:19;;;;;;;0.50;0.50;;;;;;;;;;7403088;19;20248;-89
2023/06/15 08:04:46;;;;;;;1.25;1.23;;;;;;;;;;7402887;19;20133;-89
2023/06/15 08:07:13;;;;;;;1.23;1.17;;;;;;;;;;7404797;19;20590;-89
2023/06/15 08:09:40;;;;;;;0.80;0.80;;;;;;;;;;7401085;19;20143;-89
2023/06/15 08:12:07;;;;;;;0.80;0.80;;;;;;;;;;7399986;19;20174;-89
2023/06/15 08:14:35;;;;;;;1.27;1.17;;;;;;;;;;7401448;19;20137;-89
2023/06/15 08:17:03;;;;;;;0.80;0.80;;;;;;;;;;7405631;19;20141;-89
2023/06/15 08:19:29;;;;;;;1.00;1.00;;;;;;;;;;7409242;19;20173;-89
2023/06/15 08:21:56;;;;;;;0.70;0.70;;;;;;;;;;7408436;19;20621;-89
2023/06/15 08:24:23;;;;;;;0.40;0.40;;;;;;;;;;7406765;19;20165;-89
2023/06/15 08:26:53;;;;;;;2.90;1.05;;;;;;;;;;7408695;19;20237;-89
2023/06/15 08:29:20;;;;;;;0.70;0.70;;;;;;;;;;7406569;19;20159;-88
2023/06/15 08:31:50;;;;;;;0.82;0.82;;;;;;;;;;7407281;19;20156;-89
2023/06/15 08:34:18;;;;;;;0.77;0.70;;;;;;;;;;7407856;19;20169;-89
2023/06/15 08:36:46;;;;;;;0.82;0.82;;;;;;;;;;7405760;19;20141;-89
2023/06/15 08:39:13;;;;;;;1.10;1.02;;;;;;;;;;7402249;19;20133;-89
2023/06/15 08:41:39;;;;;;;0.50;0.50;;;;;;;;;;7403729;19;20834;-89
2023/06/15 08:44:07;;;;;;;0.55;0.55;;;;;;;;;;7403982;19;20129;-89
2023/06/15 08:46:34;;;;;;;0.60;0.60;;;;;;;;;;7404756;19;20144;-88
2023/06/15 08:49:02;;;;;;;0.90;0.90;;;;;;;;;;7404549;19;20149;-89
2023/06/15 08:51:29;;;;;;;1.48;1.38;;;;;;;;;;7406503;19;20141;-89
2023/06/15 08:53:56;;;;;;;0.82;0.82;;;;;;;;;;7406787;19;20153;-87
2023/06/15 08:56:23;;;;;;;0.70;0.70;;;;;;;;;;7414941;19;20136;-89
2023/06/15 08:58:50;;;;;;;0.70;0.70;;;;;;;;;;7410937;19;20140;-89
2023/06/15 09:01:22;;;;;;;0.68;0.65;;;;;;;;;;7402527;19;20137;-89
2023/06/15 09:03:53;;;;;;;0.60;0.60;;;;;;;;;;7399193;19;20930;-88
2023/06/15 09:06:22;;;;;;;1.15;1.15;;;;;;;;;;7401990;19;20139;-88
2023/06/15 09:08:48;;;;;;;1.33;0.93;;;;;;;;;;7400612;19;20230;-90
2023/06/15 09:11:16;;;;;;;0.80;0.80;;;;;;;;;;7400743;19;20133;-90
2023/06/15 09:13:43;;;;;;;0.95;0.95;;;;;;;;;;7398781;19;20497;-90
2023/06/15 09:16:10;;;;;;;0.75;0.75;;;;;;;;;;7397554;19;20152;-89
2023/06/15 09:18:45;;;;;;;0.75;0.75;;;;;;;;;;7410319;19;20159;-89
2023/06/15 09:21:13;;;;;;;0.82;0.80;;;;;;;;;;7420426;19;20144;-89
2023/06/15 09:23:41;;;;;;;0.93;0.73;;;;;;;;;;7415301;19;20153;-88
2023/06/15 09:26:09;;;;;;;0.70;0.70;;;;;;;;;;7405384;19;20144;-90
2023/06/15 09:28:43;;;;;;;0.98;0.98;;;;;;;;;;7400764;19;20168;-89
2023/06/15 09:31:10;;;;;;;0.77;0.77;;;;;;;;;;7396260;19;20136;-90
2023/06/15 09:33:37;;;;;;;0.60;0.60;;;;;;;;;;7408122;19;20168;-90
2023/06/15 09:36:07;;;;;;;0.73;0.73;;;;;;;;;;7424785;19;20137;-89
2023/06/15 09:38:44;;;;;;;1.67;0.70;;;;;;;;;;7408806;19;20479;-89
2023/06/15 09:41:11;;;;;;;0.75;0.75;;;;;;;;;;7406861;19;20161;-89
2023/06/15 09:43:41;;;;;;;0.90;0.90;;;;;;;;;;7404046;19;20188;-89
2023/06/15 09:46:13;;;;;;;2.03;1.40;;;;;;;;;;7400894;19;20141;-90
2023/06/15 09:48:40;;;;;;;0.88;0.88;;;;;;;;;;7405524;19;20213;-90
2023/06/15 09:51:07;;;;;;;0.77;0.77;;;;;;;;;;7405515;19;20145;-89
2023/06/15 09:53:33;;;;;;;1.05;0.93;;;;;;;;;;7403724;19;20185;-90
2023/06/15 09:56:01;;;;;;;0.77;0.77;;;;;;;;;;7403507;19;20140;-89
2023/06/15 09:58:36;;;;;;;0.80;0.80;;;;;;;;;;7403205;19;20210;-90
2023/06/15 10:01:04;;;;;;;0.57;0.57;;;;;;;;;;7405074;19;20184;-89
2023/06/15 10:03:31;;;;;;;5.30;0.75;;;;;;;;;;7401903;19;20238;-89
2023/06/15 10:06:05;;;;;;;0.50;0.50;;;;;;;;;;7404532;19;20137;-89
2023/06/15 10:08:34;;;;;;;0.60;0.60;;;;;;;;;;7404640;19;20222;-89
2023/06/15 10:11:01;;;;;;;1.08;0.90;;;;;;;;;;7404152;19;20640;-88
2023/06/15 10:13:37;;;;;;;0.90;0.88;;;;;;;;;;7399247;19;20157;-89
2023/06/15 10:16:04;;;;;;;0.60;0.60;;;;;;;;;;7401240;19;20586;-90
2023/06/15 10:18:32;;;;;;;0.88;0.88;;;;;;;;;;7400414;19;20136;-90
2023/06/15 10:21:02;;;;;;;1.05;0.70;;;;;;;;;;7415721;19;20185;-90
2023/06/15 10:23:29;;;;;;;0.70;0.70;;;;;;;;;;7424666;19;20141;-89
2023/06/15 10:26:11;;;;;;;1.35;1.25;;;;;;;;;;7426089;19;20156;-89
2023/06/15 10:28:42;;;;;;;0.85;0.85;;;;;;;;;;7428941;19;20138;-89
2023/06/15 10:31:31;;;;;;;0.90;0.90;;;;;;;;;;7427105;19;20148;-90
2023/06/15 10:34:03;;;;;;;0.75;0.75;;;;;;;;;;7428125;19;20176;-89
2023/06/15 10:36:34;;;;;;;0.52;0.52;;;;;;;;;;7428439;19;20133;-90
2023/06/15 10:39:10;;;;;;;1.05;0.95;;;;;;;;;;7428299;19;20173;-88
2023/06/15 10:41:37;;;;;;;0.82;0.82;;;;;;;;;;7428082;19;20140;-87
2023/06/15 10:44:05;;;;;;;0.93;0.93;;;;;;;;;;7396735;19;20147;-89
2023/06/15 10:46:35;;;;;;;1.10;0.70;;;;;;;;;;7394901;19;20205;-89
2023/06/15 10:49:04;;;;;;;0.80;0.80;;;;;;;;;;7399491;19;20220;-91
2023/06/15 10:51:42;;;;;;;2.80;0.90;;;;;;;;;;7405890;19;20143;-89
2023/06/15 10:54:22;;;;;;;2.80;1.00;;;;;;;;;;7424141;19;20133;-86
2023/06/15 10:56:50;;;;;;;0.63;0.63;;;;;;;;;;7405518;19;20163;-87
2023/06/15 10:59:47;;;;;;;0.68;0.68;;;;;;;;;;7399628;19;20145;-85
2023/06/15 11:02:31;;;;;;;1.05;0.98;;;;;;;;;;7397820;19;20189;-86
2023/06/15 11:05:08;;;;;;;0.60;0.60;;;;;;;;;;7401767;19;20165;-86
2023/06/15 11:07:36;;;;;;;0.55;0.55;;;;;;;;;;7403633;19;20147;-85
2023/06/15 11:10:13;;;;;;;0.85;0.85;;;;;;;;;;7399911;19;20156;-89
2023/06/15 11:12:43;;;;;;;0.80;0.70;;;;;;;;;;7401310;19;20179;-86
2023/06/15 11:15:12;;;;;;;0.88;0.88;;;;;;;;;;7401458;19;20173;-87
2023/06/15 11:17:52;;;;;;;1.10;1.10;;;;;;;;;;7397714;19;20133;-88
2023/06/15 11:20:38;;;;;;;0.80;0.80;;;;;;;;;;7396581;19;20147;-89
2023/06/15 11:23:24;;;;;;;0.95;0.95;;;;;;;;;;7398119;19;20240;-87
2023/06/15 11:25:54;;;;;;;1.15;1.05;;;;;;;;;;7401803;19;20524;-88
2023/06/15 11:28:24;;;;;;;1.30;1.20;;;;;;;;;;7401353;19;20627;-88
2023/06/15 11:31:04;;;;;;;0.65;0.65;;;;;;;;;;7407100;19;20153;-88
2023/06/15 11:33:36;;;;;;;1.05;0.77;;;;;;;;;;7409723;19;20543;-88
2023/06/15 11:36:05;;;;;;;0.65;0.65;;;;;;;;;;7412315;19;20625;-88
2023/06/15 11:38:32;;;;;;;0.50;0.50;;;;;;;;;;7404149;19;20668;-88
2023/06/15 11:41:00;;;;;;;0.90;0.70;;;;;;;;;;7407390;19;20474;-89
2023/06/15 11:43:31;;;;;;;1.02;1.00;;;;;;;;;;7409498;19;20172;-89
2023/06/15 11:45:58;;;;;;;0.63;0.63;;;;;;;;;;7412528;19;20257;-89
2023/06/15 11:48:25;;;;;;;1.20;1.10;;;;;;;;;;7412701;19;20151;-89
2023/06/15 11:50:52;;;;;;;2.28;1.30;;;;;;;;;;7412699;19;20144;-89
2023/06/15 11:53:20;;;;;;;1.17;1.02;;;;;;;;;;7411907;19;20180;-89
2023/06/15 11:55:46;;;;;;;0.50;0.50;;;;;;;;;;7411018;19;20600;-89
2023/06/15 11:58:13;;;;;;;0.60;0.60;;;;;;;;;;7413891;19;20604;-89
2023/06/15 12:00:40;;;;;;;0.63;0.63;;;;;;;;;;7412810;19;20581;-89
2023/06/15 12:03:11;;;;;;;0.50;0.50;;;;;;;;;;7412156;19;20163;-89
2023/06/15 12:05:39;;;;;;;0.70;0.70;;;;;;;;;;7412348;19;20145;-89
2023/06/15 12:08:06;;;;;;;1.17;0.75;;;;;;;;;;7410355;19;20518;-89
2023/06/15 12:10:34;;;;;;;0.82;0.82;;;;;;;;;;7414058;19;20144;-89
2023/06/15 12:13:01;;;;;;;1.55;1.02;;;;;;;;;;7409392;19;20353;-88
2023/06/15 12:15:28;;;;;;;1.05;1.02;;;;;;;;;;7414281;19;20606;-89
2023/06/15 12:17:56;;;;;;;0.85;0.85;;;;;;;;;;7412681;19;20129;-89
2023/06/15 12:20:30;;;;;;;0.70;0.70;;;;;;;;;;7415690;19;20141;-89
2023/06/15 12:22:56;;;;;;;1.67;0.63;;;;;;;;;;7410608;19;20153;-88
2023/06/15 12:25:59;;;;;;;0.60;0.60;;;;;;;;;;7414426;19;20137;-90
2023/06/15 12:28:27;;;;;;;0.82;0.82;;;;;;;;;;7408398;19;20150;-90
2023/06/15 12:31:03;;;;;;;1.02;1.02;;;;;;;;;;7408909;19;20157;-88
2023/06/15 12:33:31;;;;;;;1.40;1.15;;;;;;;;;;7407570;19;20164;-89
2023/06/15 12:35:59;;;;;;;1.30;0.80;;;;;;;;;;7409528;19;20212;-88
2023/06/15 12:38:27;;;;;;;0.65;0.65;;;;;;;;;;7409540;19;20605;-88
2023/06/15 12:40:56;;;;;;;0.65;0.65;;;;;;;;;;7407815;19;20157;-88
2023/06/15 12:43:26;;;;;;;0.80;0.80;;;;;;;;;;7401922;19;20244;-89
2023/06/15 12:45:54;;;;;;;0.85;0.85;;;;;;;;;;7402362;19;20133;-89
2023/06/15 12:48:22;;;;;;;0.93;0.93;;;;;;;;;;7400892;19;20147;-89
2023/06/15 12:50:50;;;;;;;0.80;0.80;;;;;;;;;;7401771;19;20660;-89
2023/06/15 12:53:18;;;;;;;1.27;1.17;;;;;;;;;;7422400;19;20165;-89
2023/06/15 12:55:46;;;;;;;0.98;0.98;;;;;;;;;;7422564;19;20141;-88
2023/06/15 12:58:13;;;;;;;1.77;1.00;;;;;;;;;;7413365;19;20192;-89
2023/06/15 13:00:42;;;;;;;0.82;0.80;;;;;;;;;;7408736;19;20129;-89
2023/06/15 13:03:09;;;;;;;0.90;0.90;;;;;;;;;;7402200;19;20160;-89
2023/06/15 13:05:39;;;;;;;0.88;0.88;;;;;;;;;;7398789;19;20652;-88
2023/06/15 13:08:06;;;;;;;0.70;0.70;;;;;;;;;;7405593;19;20668;-89
2023/06/15 13:10:33;;;;;;;1.00;0.98;;;;;;;;;;7410415;19;20133;-89
2023/06/15 13:13:00;;;;;;;0.65;0.65;;;;;;;;;;7408963;19;20148;-90
2023/06/15 13:15:27;;;;;;;1.02;0.95;;;;;;;;;;7407874;19;20185;-89
2023/06/15 13:17:54;;;;;;;0.60;0.60;;;;;;;;;;7410649;19;20131;-90
2023/06/15 13:20:22;;;;;;;0.77;0.77;;;;;;;;;;7408130;19;20137;-89
2023/06/15 13:22:50;;;;;;;3.53;1.25;;;;;;;;;;7406583;19;20164;-89
2023/06/15 13:25:18;;;;;;;0.82;0.82;;;;;;;;;;7406201;19;20504;-88
2023/06/15 13:27:45;;;;;;;3.83;1.00;;;;;;;;;;7404991;19;20168;-89
2023/06/15 13:30:13;;;;;;;1.17;1.10;;;;;;;;;;7401952;19;20137;-89
2023/06/15 13:32:42;;;;;;;0.98;0.98;;;;;;;;;;7404302;19;20156;-89
2023/06/15 13:35:09;;;;;;;0.50;0.50;;;;;;;;;;7409425;19;20134;-89
2023/06/15 13:37:36;;;;;;;0.80;0.80;;;;;;;;;;7410949;19;20143;-89
2023/06/15 13:40:08;;;;;;;1.25;1.20;;;;;;;;;;7409130;19;20149;-90
2023/06/15 13:42:39;;;;;;;1.50;0.98;;;;;;;;;;7409560;19;20184;-90
2023/06/15 13:45:13;;;;;;;0.90;0.90;;;;;;;;;;7412143;19;20137;-89
2023/06/15 13:47:41;;;;;;;0.50;0.50;;;;;;;;;;7403765;19;20152;-88
2023/06/15 13:50:09;;;;;;;1.38;1.27;;;;;;;;;;7405461;19;20158;-89
2023/06/15 13:52:36;;;;;;;0.70;0.70;;;;;;;;;;7402579;19;20528;-89
2023/06/15 13:55:04;;;;;;;0.85;0.85;;;;;;;;;;7397444;19;20141;-88
2023/06/15 13:57:34;;;;;;;0.70;0.70;;;;;;;;;;7401383;19;20153;-88
2023/06/15 14:00:05;;;;;;;0.82;0.82;;;;;;;;;;7402215;19;20150;-88
2023/06/15 14:02:32;;;;;;;1.30;1.23;;;;;;;;;;7404316;19;20156;-88
2023/06/15 14:05:02;;;;;;;0.85;0.75;;;;;;;;;;7416586;19;20141;-89
2023/06/15 14:07:36;;;;;;;2.10;0.95;;;;;;;;;;7410582;19;20473;-88
2023/06/15 14:10:03;;;;;;;0.80;0.80;;;;;;;;;;7402445;19;20617;-88
2023/06/15 14:12:30;;;;;;;1.85;1.30;;;;;;;;;;7402965;19;20527;-88
2023/06/15 14:14:57;;;;;;;0.80;0.80;;;;;;;;;;7400326;19;20540;-87
2023/06/15 14:17:24;;;;;;;0.65;0.65;;;;;;;;;;7404233;19;20141;-88
2023/06/15 14:19:51;;;;;;;1.02;0.95;;;;;;;;;;7401741;19;20477;-87
2023/06/15 14:33:27;;;;;;;1.05;1.05;;;;;;;;;;7394265;19;20174;-87
